Time;durP1;ratioP1;P1;durP2;ratioP2;P2;SDS_P1;SDS_P2;PMS_P1;PMS_P2;Temp;Humidity;BMP_temperature;BMP_pressure;BME280_temperature;BME280_humidity;BME280_pressure;Samples;Min_cycle;Max_cycle;Signal;HPM_P1;HPM_P2
2023/04/01 00:00:19;;;;;;;1.52;1.10;;;;;;;3.40;100.00;91460.44;5080945;28;20055;-78
2023/04/01 00:02:46;;;;;;;2.17;1.00;;;;;;;3.37;100.00;91448.03;5083897;28;20031;-77
2023/04/01 00:05:12;;;;;;;1.52;1.00;;;;;;;3.33;100.00;91437.44;5079405;28;20043;-79
2023/04/01 00:07:39;;;;;;;5.07;1.05;;;;;;;3.29;100.00;91433.06;5101183;28;20027;-78
2023/04/01 00:10:11;;;;;;;3.97;1.13;;;;;;;3.29;100.00;91428.66;5077474;28;20035;-78
2023/04/01 00:12:37;;;;;;;0.98;0.98;;;;;;;3.22;100.00;91422.22;5099206;28;20028;-78
2023/04/01 00:15:05;;;;;;;1.23;0.90;;;;;;;3.22;100.00;91423.03;5102753;28;20027;-78
2023/04/01 00:17:31;;;;;;;1.25;1.00;;;;;;;3.23;100.00;91428.97;5103303;28;20079;-79
2023/04/01 00:19:57;;;;;;;1.80;1.00;;;;;;;3.18;100.00;91431.56;5101308;28;20039;-80
2023/04/01 00:22:24;;;;;;;1.38;1.00;;;;;;;3.16;100.00;91423.31;5101758;28;20542;-79
2023/04/01 00:24:50;;;;;;;2.13;1.00;;;;;;;3.15;100.00;91419.16;5082260;28;20044;-79
2023/04/01 00:27:16;;;;;;;2.10;1.30;;;;;;;3.15;100.00;91426.91;5079271;28;20512;-79
2023/04/01 00:29:43;;;;;;;2.35;1.40;;;;;;;3.43;100.00;91436.59;5079183;28;20036;-78
2023/04/01 00:32:09;;;;;;;2.45;1.40;;;;;;;3.48;100.00;91433.97;5075422;28;20044;-77
2023/04/01 00:34:34;;;;;;;2.80;1.25;;;;;;;3.43;100.00;91428.09;5079204;28;20031;-78
2023/04/01 00:37:00;;;;;;;3.20;1.25;;;;;;;3.41;100.00;91430.94;5100486;28;20477;-77
2023/04/01 00:39:29;;;;;;;1.60;1.27;;;;;;;3.38;100.00;91425.50;5100756;28;20486;-78
2023/04/01 00:41:56;;;;;;;8.00;2.42;;;;;;;3.29;100.00;91427.91;5101995;28;20036;-78
2023/04/01 00:44:24;;;;;;;2.60;1.30;;;;;;;3.22;100.00;91417.06;5064087;28;20172;-78
2023/04/01 00:46:52;;;;;;;1.45;1.00;;;;;;;3.23;100.00;91410.84;5080225;28;20036;-80
2023/04/01 00:49:21;;;;;;;0.95;0.82;;;;;;;3.25;100.00;91414.72;5081336;28;20104;-79
2023/04/01 00:51:50;;;;;;;2.38;1.40;;;;;;;3.32;100.00;91406.66;5078733;28;20438;-78
2023/04/01 00:54:18;;;;;;;1.17;1.00;;;;;;;3.51;100.00;91399.81;5078474;28;20012;-79
2023/04/01 00:57:08;;;;;;;0.60;0.55;;;;;;;3.92;100.00;91403.94;5080455;28;20032;-80
2023/04/01 00:59:40;;;;;;;0.60;0.60;;;;;;;4.23;100.00;91404.41;5103239;28;20066;-79
2023/04/01 01:02:11;;;;;;;0.60;0.60;;;;;;;4.28;100.00;91396.63;5102674;28;20248;-79
2023/04/01 01:04:37;;;;;;;1.05;0.63;;;;;;;4.35;100.00;91402.25;5077178;28;20062;-79
2023/04/01 01:07:17;;;;;;;0.63;0.63;;;;;;;4.66;100.00;91391.59;5080771;28;20028;-79
2023/04/01 01:10:18;;;;;;;1.33;0.80;;;;;;;4.71;100.00;91395.94;5075460;28;20036;-81
2023/04/01 01:12:45;;;;;;;0.95;0.80;;;;;;;4.75;100.00;91407.28;5075923;28;20047;-78
2023/04/01 01:15:11;;;;;;;1.42;0.80;;;;;;;4.71;100.00;91396.72;5084646;28;20438;-80
2023/04/01 01:17:43;;;;;;;0.50;0.50;;;;;;;4.65;100.00;91392.63;5063103;28;20110;-81
2023/04/01 01:20:42;;;;;;;0.80;0.80;;;;;;;4.79;100.00;91406.44;5076054;28;20047;-79
2023/04/01 01:23:39;;;;;;;0.60;0.60;;;;;;;4.87;100.00;91397.31;5080811;28;20269;-80
2023/04/01 01:26:33;;;;;;;0.55;0.55;;;;;;;5.25;100.00;91389.59;5083497;28;20131;-80
2023/04/01 01:29:20;;;;;;;1.23;0.80;;;;;;;5.07;100.00;91400.72;5084721;28;20032;-80
2023/04/01 01:32:07;;;;;;;1.67;1.00;;;;;;;4.84;100.00;91402.25;5078754;28;20062;-80
2023/04/01 01:34:45;;;;;;;0.70;0.70;;;;;;;4.63;100.00;91406.91;5076376;28;20027;-79
2023/04/01 01:37:17;;;;;;;0.85;0.77;;;;;;;4.44;100.00;91405.03;5077673;28;20116;-80
2023/04/01 01:39:44;;;;;;;;;;;;;;;4.44;100.00;91401.66;5062664;28;20414;-79
2023/04/01 01:42:15;;;;;;;2.60;0.82;;;;;;;4.24;100.00;91400.81;5083068;28;19993;-81
2023/04/01 01:44:43;;;;;;;0.88;0.80;;;;;;;4.12;100.00;91397.78;5077896;28;20064;-80
2023/04/01 01:47:10;;;;;;;2.35;1.10;;;;;;;4.05;100.00;91424.00;5084570;28;20046;-80
2023/04/01 01:49:36;;;;;;;0.88;0.88;;;;;;;3.93;100.00;91389.94;5101494;28;20036;-79
2023/04/01 01:52:03;;;;;;;0.60;0.60;;;;;;;3.93;100.00;91401.06;5081324;28;20089;-79
2023/04/01 01:54:29;;;;;;;1.52;0.75;;;;;;;3.88;100.00;91401.09;5076943;28;20050;-80
2023/04/01 01:57:10;;;;;;;0.70;0.70;;;;;;;3.78;100.00;91396.00;5079619;28;20031;-80
2023/04/01 01:59:42;;;;;;;2.63;1.00;;;;;;;3.68;100.00;91383.91;5079120;28;20035;-78
2023/04/01 02:02:10;;;;;;;0.82;0.82;;;;;;;3.58;100.00;91389.19;5076907;28;20036;-79
2023/04/01 02:04:40;;;;;;;0.90;0.80;;;;;;;3.50;100.00;91379.38;5080116;28;20467;-79
2023/04/01 02:07:13;;;;;;;1.60;0.90;;;;;;;3.41;100.00;91389.53;5078227;28;20035;-80
2023/04/01 02:09:39;;;;;;;1.02;0.70;;;;;;;3.38;100.00;91394.47;5065833;28;20409;-79
2023/04/01 02:12:12;;;;;;;1.13;0.90;;;;;;;3.28;100.00;91392.72;5079997;28;20043;-79
2023/04/01 02:14:50;;;;;;;0.80;0.80;;;;;;;3.24;100.00;91397.66;5074831;28;20401;-79
2023/04/01 02:17:19;;;;;;;1.30;0.70;;;;;;;3.18;100.00;91390.19;5068555;28;20051;-80
2023/04/01 02:20:01;;;;;;;2.05;0.80;;;;;;;3.13;100.00;91399.53;5077819;28;20028;-79
2023/04/01 02:22:45;;;;;;;0.80;0.75;;;;;;;3.10;100.00;91396.69;5084132;28;20404;-79
2023/04/01 02:25:14;;;;;;;1.33;0.73;;;;;;;3.05;100.00;91396.72;5075732;28;20038;-79
2023/04/01 02:27:43;;;;;;;2.58;0.90;;;;;;;3.01;100.00;91396.47;5077812;28;20072;-79
2023/04/01 02:30:09;;;;;;;1.20;0.68;;;;;;;2.97;100.00;91402.44;5059857;28;20106;-79
2023/04/01 02:32:38;;;;;;;0.73;0.73;;;;;;;2.90;100.00;91400.13;5075894;28;20410;-79
2023/04/01 02:35:15;;;;;;;0.77;0.73;;;;;;;2.90;100.00;91405.31;5077352;28;20497;-78
2023/04/01 02:37:43;;;;;;;0.70;0.70;;;;;;;2.86;100.00;91402.50;5075924;28;20036;-81
2023/04/01 02:40:12;;;;;;;3.67;0.85;;;;;;;2.91;100.00;91401.69;5069009;28;20096;-80
2023/04/01 02:42:37;;;;;;;1.17;0.90;;;;;;;2.86;100.00;91404.28;5076313;28;20020;-78
2023/04/01 02:45:04;;;;;;;1.05;0.85;;;;;;;2.83;100.00;91400.41;5086049;28;20036;-79
2023/04/01 02:47:30;;;;;;;0.82;0.80;;;;;;;2.80;100.00;91400.19;5080641;28;20081;-79
2023/04/01 02:49:58;;;;;;;2.22;0.85;;;;;;;2.84;100.00;91403.81;5078539;28;20456;-79
2023/04/01 02:52:28;;;;;;;0.70;0.70;;;;;;;2.86;100.00;91406.88;5072199;28;20039;-80
2023/04/01 02:54:56;;;;;;;0.60;0.60;;;;;;;2.84;100.00;91401.22;5078732;28;20635;-78
2023/04/01 02:57:21;;;;;;;0.77;0.73;;;;;;;2.87;100.00;91401.44;5081823;28;20126;-81
2023/04/01 02:59:47;;;;;;;0.88;0.70;;;;;;;2.79;100.00;91390.88;5086726;28;20123;-79
2023/04/01 03:02:14;;;;;;;1.25;0.90;;;;;;;2.82;100.00;91406.66;5079515;28;20032;-80
2023/04/01 03:04:40;;;;;;;0.70;0.70;;;;;;;2.82;100.00;91405.88;5081167;28;20118;-80
2023/04/01 03:07:05;;;;;;;2.38;1.25;;;;;;;2.82;100.00;91419.56;5080465;28;20127;-79
2023/04/01 03:09:31;;;;;;;2.13;1.40;;;;;;;2.84;100.00;91416.72;5081861;28;20067;-78
2023/04/01 03:11:57;;;;;;;1.75;1.10;;;;;;;2.79;100.00;91417.53;5084299;28;20294;-79
2023/04/01 03:14:22;;;;;;;1.10;1.00;;;;;;;2.80;100.00;91426.03;5066017;28;20035;-80
2023/04/01 03:16:48;;;;;;;0.70;0.70;;;;;;;2.74;100.00;91437.44;5103581;28;20052;-78
2023/04/01 03:19:14;;;;;;;0.65;0.65;;;;;;;2.70;100.00;91450.09;5079475;28;20043;-78
2023/04/01 03:21:40;;;;;;;0.70;0.70;;;;;;;2.67;100.00;91448.03;5081608;28;20042;-77
2023/04/01 03:24:06;;;;;;;0.75;0.70;;;;;;;2.65;100.00;91450.88;5081383;28;20044;-78
2023/04/01 03:26:32;;;;;;;0.80;0.77;;;;;;;2.65;100.00;91452.69;5077743;28;20063;-79
2023/04/01 03:28:58;;;;;;;1.35;0.80;;;;;;;2.66;100.00;91446.50;5066738;28;20071;-78
2023/04/01 03:31:24;;;;;;;0.80;0.80;;;;;;;2.66;100.00;91452.44;5105974;28;20040;-80
2023/04/01 03:33:54;;;;;;;0.98;0.85;;;;;;;2.71;100.00;91460.16;5062020;28;20040;-79
2023/04/01 03:36:19;;;;;;;1.15;0.70;;;;;;;2.71;100.00;91455.00;5068255;28;20046;-80
2023/04/01 03:38:46;;;;;;;0.70;0.70;;;;;;;2.75;100.00;91459.63;5086657;28;20039;-79
2023/04/01 03:41:17;;;;;;;0.85;0.65;;;;;;;2.78;100.00;91459.13;5080151;28;20028;-80
2023/04/01 03:43:44;;;;;;;1.67;0.77;;;;;;;2.78;100.00;91448.78;5079451;28;20047;-80
2023/04/01 03:46:10;;;;;;;0.70;0.70;;;;;;;2.84;100.00;91458.09;5084818;28;20394;-80
2023/04/01 03:48:36;;;;;;;0.68;0.68;;;;;;;2.81;100.00;91453.41;5081687;28;20490;-79
2023/04/01 03:51:06;;;;;;;0.88;0.88;;;;;;;2.78;100.00;91465.06;5102074;28;20529;-79
2023/04/01 03:53:31;;;;;;;1.00;0.90;;;;;;;2.73;100.00;91457.34;5080363;28;20034;-79
2023/04/01 03:56:04;;;;;;;1.02;0.90;;;;;;;2.69;100.00;91462.25;5081309;28;20401;-79
2023/04/01 03:58:30;;;;;;;1.00;0.88;;;;;;;2.66;100.00;91457.59;5066314;28;20032;-78
2023/04/01 04:00:56;;;;;;;0.70;0.70;;;;;;;2.63;100.00;91457.34;5078013;28;20039;-78
2023/04/01 04:03:22;;;;;;;0.98;0.82;;;;;;;2.57;100.00;91455.81;5064233;28;20040;-80
2023/04/01 04:05:49;;;;;;;0.57;0.57;;;;;;;2.58;100.00;91471.06;5079242;28;20040;-79
2023/04/01 04:08:17;;;;;;;0.70;0.70;;;;;;;2.59;100.00;91456.31;5080859;28;20401;-79
2023/04/01 04:10:42;;;;;;;0.90;0.90;;;;;;;2.58;100.00;91447.03;5079814;28;20105;-79
2023/04/01 04:13:08;;;;;;;0.93;0.75;;;;;;;2.63;100.00;91458.13;5076591;28;20490;-79
2023/04/01 04:15:39;;;;;;;1.25;0.80;;;;;;;2.66;100.00;91451.66;5089910;27;20119;-80
2023/04/01 04:18:05;;;;;;;1.30;0.90;;;;;;;2.67;100.00;91448.81;5091494;27;20105;-79
2023/04/01 04:20:31;;;;;;;0.80;0.80;;;;;;;2.75;100.00;91452.69;5113565;27;20477;-79
2023/04/01 04:22:57;;;;;;;0.70;0.70;;;;;;;2.78;100.00;91464.31;5109196;27;20035;-80
2023/04/01 04:25:22;;;;;;;2.45;0.70;;;;;;;2.73;100.00;91452.16;5106366;27;20092;-79
2023/04/01 04:27:49;;;;;;;0.65;0.50;;;;;;;2.76;100.00;91458.63;5091006;27;20039;-80
2023/04/01 04:30:15;;;;;;;1.85;0.82;;;;;;;2.74;100.00;91458.88;5112814;27;20457;-79
2023/04/01 04:32:41;;;;;;;0.80;0.80;;;;;;;2.73;100.00;91459.16;5105560;28;20043;-80
2023/04/01 04:35:08;;;;;;;0.50;0.50;;;;;;;2.70;100.00;91463.81;5109852;28;20477;-78
2023/04/01 04:37:34;;;;;;;1.02;0.80;;;;;;;2.70;100.00;91465.59;5108613;28;20035;-79
2023/04/01 04:39:59;;;;;;;1.15;0.70;;;;;;;2.67;100.00;91458.38;5107020;27;20047;-79
2023/04/01 04:42:31;;;;;;;0.60;0.60;;;;;;;2.62;100.00;91459.16;5092013;27;20032;-80
2023/04/01 04:45:09;;;;;;;0.63;0.63;;;;;;;2.63;100.00;91463.28;5115357;27;20058;-80
2023/04/01 04:47:50;;;;;;;0.60;0.60;;;;;;;2.60;100.00;91461.22;5114455;27;20073;-81
2023/04/01 04:50:53;;;;;;;0.70;0.70;;;;;;;2.60;100.00;91466.41;5093302;28;20035;-80
2023/04/01 04:53:25;;;;;;;0.70;0.70;;;;;;;2.61;100.00;91464.59;5136286;27;20035;-81
2023/04/01 04:55:51;;;;;;;1.08;0.70;;;;;;;2.61;100.00;91470.56;5120835;27;20492;-81
2023/04/01 04:58:28;;;;;;;0.57;0.57;;;;;;;2.61;100.00;91465.38;5091117;27;20042;-80
2023/04/01 05:00:58;;;;;;;0.63;0.60;;;;;;;2.63;100.00;91480.59;5102130;28;20393;-80
2023/04/01 05:03:40;;;;;;;1.38;0.63;;;;;;;2.62;100.00;91482.41;5087230;28;20031;-81
2023/04/01 05:06:21;;;;;;;0.80;0.70;;;;;;;2.60;100.00;91478.56;5134673;27;20055;-81
2023/04/01 05:09:13;;;;;;;1.27;0.68;;;;;;;2.59;100.00;91482.94;5122864;27;20090;-81
2023/04/01 05:11:45;;;;;;;0.60;0.60;;;;;;;2.57;100.00;91479.84;5085786;28;20100;-81
2023/04/01 05:14:33;;;;;;;0.68;0.60;;;;;;;2.65;100.00;91473.38;5122277;27;20134;-81
2023/04/01 05:17:13;;;;;;;0.65;0.65;;;;;;;2.65;100.00;91468.97;5102764;28;20077;-80
2023/04/01 05:19:39;;;;;;;0.50;0.50;;;;;;;2.74;100.00;91471.03;5102664;28;20047;-80
2023/04/01 05:22:08;;;;;;;0.88;0.63;;;;;;;2.90;100.00;91478.50;5122121;27;20087;-81
2023/04/01 05:24:39;;;;;;;0.68;0.68;;;;;;;2.99;100.00;91470.94;5123562;27;20087;-81
2023/04/01 05:27:07;;;;;;;0.50;0.50;;;;;;;3.04;100.00;91478.69;5103269;28;20126;-81
2023/04/01 05:29:49;;;;;;;0.68;0.68;;;;;;;3.10;100.00;91477.63;5122775;27;20446;-81
2023/04/01 05:32:36;;;;;;;0.60;0.60;;;;;;;3.20;100.00;91483.78;5123347;27;20119;-81
2023/04/01 05:35:02;;;;;;;4.57;0.80;;;;;;;3.33;100.00;91485.81;5118458;28;20051;-80
2023/04/01 05:37:29;;;;;;;0.70;0.70;;;;;;;3.44;100.00;91489.88;5104458;27;20027;-81
2023/04/01 05:39:58;;;;;;;0.98;0.60;;;;;;;3.59;100.00;91485.69;5105491;27;20035;-81
2023/04/01 05:42:26;;;;;;;0.60;0.60;;;;;;;3.77;93.66;91489.47;5134559;27;20040;-81
2023/04/01 05:45:15;;;;;;;0.65;0.57;;;;;;;4.00;92.93;91495.78;5121015;27;20023;-81
2023/04/01 05:48:24;;;;;;;0.60;0.60;;;;;;;4.23;93.95;91492.50;5072286;28;20082;-81
2023/04/01 05:50:49;;;;;;;0.63;0.63;;;;;;;4.42;95.39;91489.28;5089359;28;20059;-80
2023/04/01 05:53:45;;;;;;;0.50;0.50;;;;;;;4.70;90.75;91495.47;5102400;28;20031;-81
2023/04/01 05:56:20;;;;;;;0.60;0.50;;;;;;;4.98;88.57;91501.72;5135124;28;20023;-79
2023/04/01 05:59:10;;;;;;;0.77;0.77;;;;;;;5.31;90.09;91496.66;5105383;28;20042;-81
2023/04/01 06:01:48;;;;;;;0.60;0.60;;;;;;;5.96;90.85;91507.28;5123353;28;20039;-81
2023/04/01 06:04:16;;;;;;;2.78;1.60;;;;;;;7.45;84.34;91508.25;5108150;28;20128;-80
2023/04/01 06:06:42;;;;;;;2.55;1.33;;;;;;;8.89;79.30;91499.88;5113365;28;20027;-78
2023/04/01 06:09:16;;;;;;;4.60;1.60;;;;;;;10.03;70.54;91496.56;5113663;28;20076;-81
2023/04/01 06:12:42;;;;;;;1.55;1.08;;;;;;;11.24;68.22;91508.03;5116285;28;20091;-81
2023/04/01 06:15:25;;;;;;;3.10;0.80;;;;;;;12.75;67.84;91503.16;5110731;28;20876;-82
2023/04/01 06:17:52;;;;;;;;;;;;;;;13.02;67.74;91505.19;5118217;28;20089;-82
2023/04/01 06:20:39;;;;;;;1.83;0.95;;;;;;;13.56;59.58;91506.97;5114249;28;19915;-80
2023/04/01 06:23:25;;;;;;;1.88;0.80;;;;;;;14.36;53.80;91495.84;5109345;28;20028;-85
2023/04/01 06:25:55;;;;;;;0.70;0.70;;;;;;;14.90;50.83;91501.81;5110978;28;20393;-82
2023/04/01 06:28:33;;;;;;;1.02;0.90;;;;;;;15.24;48.80;91502.31;5107866;28;20039;-82
2023/04/01 06:31:07;;;;;;;0.80;0.80;;;;;;;15.67;50.88;91500.72;5116879;28;20135;-81
2023/04/01 06:33:42;;;;;;;1.10;0.80;;;;;;;16.23;47.47;91505.81;5113916;27;20035;-81
2023/04/01 06:36:20;;;;;;;1.27;0.73;;;;;;;16.96;46.10;91506.94;5113993;28;20043;-80
2023/04/01 06:38:49;;;;;;;0.75;0.75;;;;;;;17.37;43.92;91506.56;5115393;28;20036;-81
2023/04/01 06:41:42;;;;;;;0.50;0.50;;;;;;;17.30;42.87;91506.44;5110607;28;20023;-80
2023/04/01 06:44:37;;;;;;;0.40;0.40;;;;;;;17.87;44.99;91508.16;5088423;28;20055;-80
2023/04/01 06:48:11;;;;;;;2.70;1.10;;;;;;;19.36;43.74;91504.41;5110774;28;20486;-82
2023/04/01 06:51:11;;;;;;;2.42;1.10;;;;;;;19.29;43.84;91505.09;5020806;28;20052;-81
2023/04/01 06:54:10;;;;;;;1.88;0.88;;;;;;;19.28;42.04;91500.94;5101193;27;20068;-83
2023/04/01 06:57:02;;;;;;;2.92;0.90;;;;;;;18.96;44.58;91500.59;5109446;28;20035;-78
2023/04/01 06:59:32;;;;;;;3.17;1.13;;;;;;;17.49;45.09;91503.72;5119558;28;20081;-79
2023/04/01 07:02:40;;;;;;;1.35;1.00;;;;;;;18.20;46.77;91504.13;5094560;28;20032;-78
2023/04/01 07:05:07;;;;;;;6.93;1.42;;;;;;;17.98;47.49;91505.69;5057070;28;20072;-79
2023/04/01 07:07:57;;;;;;;1.08;0.90;;;;;;;18.86;43.79;91499.31;5057101;28;20037;-79
2023/04/01 07:10:50;;;;;;;1.70;1.10;;;;;;;17.32;46.39;91504.19;5095200;28;20089;-79
2023/04/01 07:13:49;;;;;;;1.30;1.00;;;;;;;15.44;47.40;91498.69;5115045;28;20043;-80
2023/04/01 07:16:22;;;;;;;2.03;1.23;;;;;;;13.91;51.11;91506.53;5126183;27;20043;-79
2023/04/01 07:18:57;;;;;;;1.27;0.88;;;;;;;14.21;52.10;91504.44;5119917;27;20031;-81
2023/04/01 07:21:35;;;;;;;1.08;0.88;;;;;;;14.40;48.46;91508.34;5112686;27;20039;-80
2023/04/01 07:24:23;;;;;;;2.15;1.30;;;;;;;14.04;56.56;91499.41;5115402;27;20035;-80
2023/04/01 07:27:00;;;;;;;2.65;1.20;;;;;;;13.16;58.09;91496.25;5121842;27;20031;-80
2023/04/01 07:29:50;;;;;;;1.17;0.95;;;;;;;12.15;58.51;91513.78;5104052;28;20494;-79
2023/04/01 07:32:42;;;;;;;2.38;1.17;;;;;;;11.99;61.78;91512.81;5119528;28;20040;-78
2023/04/01 07:35:34;;;;;;;0.77;0.70;;;;;;;11.54;56.64;91519.31;5100606;28;20063;-80
2023/04/01 07:38:13;;;;;;;;;;;;;;;12.18;58.16;91521.03;5104660;27;20129;-78
2023/04/01 07:40:45;;;;;;;1.17;0.93;;;;;;;13.37;50.50;91515.38;5126695;27;19919;-78
2023/04/01 07:43:32;;;;;;;2.15;1.20;;;;;;;12.94;56.20;91513.91;5124066;27;20031;-78
2023/04/01 07:46:38;;;;;;;2.13;1.10;;;;;;;12.54;58.41;91522.31;5116732;27;20497;-77
2023/04/01 07:49:26;;;;;;;0.85;0.85;;;;;;;12.73;58.97;91513.22;5132138;27;20050;-79
2023/04/01 07:52:02;;;;;;;2.28;1.00;;;;;;;11.99;57.43;91513.56;5111952;28;20042;-79
2023/04/01 07:54:52;;;;;;;1.20;0.90;;;;;;;11.96;63.12;91519.47;5103073;28;20073;-79
2023/04/01 07:57:21;;;;;;;1.15;1.00;;;;;;;11.81;61.48;91527.84;5115127;28;20505;-78
2023/04/01 08:00:22;;;;;;;1.15;0.90;;;;;;;11.37;62.99;91525.41;5113881;28;20529;-79
2023/04/01 08:03:23;;;;;;;2.30;1.15;;;;;;;11.43;67.45;91524.13;5127169;27;20031;-79
2023/04/01 08:06:11;;;;;;;1.33;0.90;;;;;;;11.37;63.22;91524.63;5123050;27;20035;-79
2023/04/01 08:09:14;;;;;;;4.50;1.20;;;;;;;11.21;67.56;91519.13;5100424;27;20027;-77
2023/04/01 08:12:12;;;;;;;0.73;0.73;;;;;;;11.40;61.95;91535.25;5090232;27;20054;-79
2023/04/01 08:15:42;;;;;;;1.08;0.90;;;;;;;11.55;60.51;91527.94;5080178;28;20050;-79
2023/04/01 08:18:29;;;;;;;;;;;;;;;11.65;59.40;91530.22;5109751;28;20061;-79
2023/04/01 08:21:04;;;;;;;1.13;0.90;;;;;;;11.64;63.74;91528.66;5114369;28;20010;-79
2023/04/01 08:23:44;;;;;;;1.40;1.10;;;;;;;11.80;61.89;91532.31;5096751;28;20039;-79
2023/04/01 08:26:18;;;;;;;;;;;;;;;11.88;60.24;91522.88;5110468;28;20055;-78
2023/04/01 08:28:51;;;;;;;1.85;0.95;;;;;;;11.95;65.65;91525.00;5113312;28;19923;-80
2023/04/01 08:31:26;;;;;;;1.70;1.10;;;;;;;11.76;63.83;91531.41;5107686;27;20020;-79
2023/04/01 08:33:54;;;;;;;1.52;1.10;;;;;;;11.51;66.94;91530.44;5087298;27;20027;-80
2023/04/01 08:36:27;;;;;;;1.15;0.90;;;;;;;11.40;55.12;91530.00;5112022;27;20138;-78
2023/04/01 08:39:16;;;;;;;1.40;0.93;;;;;;;11.66;49.69;91529.13;5106450;27;20035;-79
2023/04/01 08:42:10;;;;;;;1.80;0.90;;;;;;;11.81;57.61;91531.22;5102530;27;20032;-78
2023/04/01 08:45:10;;;;;;;2.00;1.00;;;;;;;12.18;62.23;91526.28;5085091;27;20130;-80
2023/04/01 08:48:08;;;;;;;1.15;0.73;;;;;;;12.11;57.83;91519.97;5112227;27;20441;-77
2023/04/01 08:50:52;;;;;;;1.00;0.90;;;;;;;12.12;58.33;91522.28;5095687;27;20046;-78
2023/04/01 08:53:39;;;;;;;0.70;0.70;;;;;;;12.36;51.55;91520.88;5108794;27;20024;-80
2023/04/01 08:56:20;;;;;;;0.95;0.80;;;;;;;12.64;55.38;91523.78;5112324;27;20036;-78
2023/04/01 08:59:07;;;;;;;1.40;1.13;;;;;;;12.78;50.23;91523.50;5114656;27;20183;-78
2023/04/01 09:01:42;;;;;;;1.35;1.02;;;;;;;12.78;53.19;91531.38;5112521;27;20050;-79
2023/04/01 09:04:58;;;;;;;0.98;0.90;;;;;;;13.20;56.79;91531.31;5095594;28;20055;-78
2023/04/01 09:07:42;;;;;;;1.25;1.00;;;;;;;13.77;47.69;91533.16;5103574;27;20030;-78
2023/04/01 09:10:40;;;;;;;0.75;0.75;;;;;;;14.22;46.21;91537.53;5102283;27;20483;-78
2023/04/01 09:13:46;;;;;;;0.90;0.82;;;;;;;14.41;47.71;91541.44;5102442;27;20038;-77
2023/04/01 09:16:21;;;;;;;1.30;0.90;;;;;;;13.96;49.70;91532.63;5100146;28;20454;-78
2023/04/01 09:19:15;;;;;;;1.60;0.80;;;;;;;13.42;46.67;91528.31;5108988;27;20039;-79
2023/04/01 09:21:59;;;;;;;0.85;0.82;;;;;;;12.90;46.12;91520.91;5108129;27;20034;-77
2023/04/01 09:25:12;;;;;;;1.75;1.00;;;;;;;12.61;57.43;91537.53;5126091;27;20036;-79
2023/04/01 09:27:49;;;;;;;1.92;1.08;;;;;;;12.75;57.12;91537.28;5029840;28;20152;-77
2023/04/01 09:30:32;;;;;;;0.95;0.82;;;;;;;12.70;52.13;91541.63;5112023;27;20045;-78
2023/04/01 09:33:15;;;;;;;1.48;0.90;;;;;;;13.08;57.10;91542.53;5118897;27;20031;-78
2023/04/01 09:35:54;;;;;;;1.63;0.90;;;;;;;13.27;58.57;91547.31;5114123;28;20023;-78
2023/04/01 09:38:41;;;;;;;1.65;0.70;;;;;;;12.53;47.74;91549.66;5113884;28;20777;-78
2023/04/01 09:41:16;;;;;;;0.85;0.80;;;;;;;12.77;53.46;91558.75;5105129;28;20047;-78
2023/04/01 09:44:20;;;;;;;1.23;0.80;;;;;;;13.18;51.34;91565.03;5115093;27;20139;-77
2023/04/01 09:47:03;;;;;;;6.32;0.95;;;;;;;12.95;50.71;91557.50;5116793;27;20045;-77
2023/04/01 09:49:51;;;;;;;1.92;0.93;;;;;;;13.22;50.30;91558.03;5113908;28;20058;-79
2023/04/01 09:52:52;;;;;;;0.75;0.73;;;;;;;13.58;41.18;91551.31;5107877;27;20026;-78
2023/04/01 09:55:45;;;;;;;13.20;1.02;;;;;;;14.04;44.84;91546.75;5115100;28;20023;-80
2023/04/01 09:58:49;;;;;;;8.00;1.80;;;;;;;13.79;45.61;91551.25;5112874;28;20046;-78
2023/04/01 10:02:04;;;;;;;0.93;0.70;;;;;;;14.09;41.81;91549.94;5120721;28;20032;-80
2023/04/01 10:04:40;;;;;;;1.33;0.60;;;;;;;13.70;41.04;91554.00;5112448;28;20146;-79
2023/04/01 10:07:43;;;;;;;0.77;0.70;;;;;;;13.70;42.60;91549.50;5108294;27;20500;-78
2023/04/01 10:10:27;;;;;;;1.02;0.65;;;;;;;13.67;37.12;91554.66;5124674;27;20186;-79
2023/04/01 10:13:07;;;;;;;0.73;0.50;;;;;;;13.67;39.04;91547.53;5094666;28;20028;-79
2023/04/01 10:15:40;;;;;;;0.80;0.73;;;;;;;14.36;46.67;91543.22;5115923;28;20048;-79
2023/04/01 10:18:28;;;;;;;0.60;0.60;;;;;;;14.50;39.22;91550.00;5114692;27;20039;-77
2023/04/01 10:21:30;;;;;;;0.70;0.70;;;;;;;14.42;39.80;91545.63;5116281;28;20374;-79
2023/04/01 10:24:11;;;;;;;0.70;0.70;;;;;;;14.28;40.44;91549.38;5040670;28;20037;-81
2023/04/01 10:26:42;;;;;;;0.68;0.68;;;;;;;14.24;41.23;91550.38;5064231;28;20043;-82
2023/04/01 10:29:46;;;;;;;1.02;0.80;;;;;;;14.29;46.75;91536.97;5113238;27;20416;-78
2023/04/01 10:32:12;;;;;;;1.30;0.90;;;;;;;14.18;44.67;91538.53;5106479;28;20035;-78
2023/04/01 10:35:00;;;;;;;0.90;0.70;;;;;;;14.26;42.17;91542.91;5109606;27;20464;-78
2023/04/01 10:37:46;;;;;;;1.17;0.88;;;;;;;14.12;43.09;91544.03;5127993;27;20431;-77
2023/04/01 10:40:34;;;;;;;1.00;0.80;;;;;;;13.93;45.31;91536.66;5114629;28;20092;-78
2023/04/01 10:43:43;;;;;;;1.23;0.90;;;;;;;14.11;45.49;91541.72;5131573;28;20406;-78
2023/04/01 10:46:23;;;;;;;0.68;0.68;;;;;;;14.16;45.15;91539.63;5132507;27;20031;-79
2023/04/01 10:49:37;;;;;;;1.38;1.00;;;;;;;13.96;44.37;91545.78;5112597;28;20109;-78
2023/04/01 10:52:22;;;;;;;1.67;0.90;;;;;;;13.59;42.76;91542.34;5060855;27;20079;-80
2023/04/01 10:55:45;;;;;;;0.95;0.90;;;;;;;14.20;44.84;91537.09;5031864;28;20096;-78
2023/04/01 10:58:37;;;;;;;;;;;;;;;14.35;43.51;91539.06;5036220;28;20099;-78
2023/04/01 11:02:00;;;;;;;0.70;0.70;;;;;;;14.66;41.45;91550.88;5032208;28;19924;-77
2023/04/01 11:05:20;;;;;;;0.70;0.70;;;;;;;14.98;42.35;91535.19;5025278;28;20470;-77
2023/04/01 11:07:54;;;;;;;0.85;0.70;;;;;;;14.63;41.60;91548.88;5121137;27;20042;-79
2023/04/01 11:10:39;;;;;;;;;;;;;;;14.60;42.41;91546.94;5100155;27;20072;-78
2023/04/01 11:13:21;;;;;;;0.50;0.50;;;;;;;14.30;38.00;91543.78;5132476;27;19911;-78
2023/04/01 11:16:25;;;;;;;3.10;0.63;;;;;;;13.92;38.43;91542.28;5097170;27;20037;-80
2023/04/01 11:19:21;;;;;;;0.70;0.70;;;;;;;13.66;36.66;91539.94;5121075;27;20027;-79
2023/04/01 11:22:02;;;;;;;1.00;0.80;;;;;;;14.18;37.46;91552.44;5120194;27;20034;-79
2023/04/01 11:25:15;;;;;;;0.60;0.60;;;;;;;13.78;36.24;91542.59;5113263;27;20179;-78
2023/04/01 11:28:14;;;;;;;0.60;0.60;;;;;;;13.88;38.41;91534.25;5108472;27;20055;-79
2023/04/01 11:31:03;;;;;;;1.20;0.80;;;;;;;13.66;37.32;91545.97;5104899;27;20040;-79
2023/04/01 11:34:03;;;;;;;0.88;0.68;;;;;;;13.80;40.61;91543.03;5108045;27;20505;-79
2023/04/01 11:36:47;;;;;;;0.85;0.63;;;;;;;14.28;41.65;91532.81;5099806;27;20046;-79
2023/04/01 11:39:36;;;;;;;2.22;0.80;;;;;;;14.64;42.99;91529.38;5115716;27;20027;-79
2023/04/01 11:42:34;;;;;;;0.85;0.70;;;;;;;14.71;39.97;91531.44;5134075;27;20061;-78
2023/04/01 11:45:46;;;;;;;0.50;0.50;;;;;;;14.58;37.20;91542.00;5092249;27;20411;-78
2023/04/01 11:48:42;;;;;;;0.65;0.63;;;;;;;14.52;36.28;91540.69;5093340;27;20122;-79
2023/04/01 11:51:20;;;;;;;0.93;0.73;;;;;;;14.46;35.97;91542.00;5107224;27;20551;-79
2023/04/01 11:54:26;;;;;;;0.60;0.60;;;;;;;14.24;36.50;91532.72;5129070;27;20039;-78
2023/04/01 11:57:09;;;;;;;0.40;0.40;;;;;;;14.27;36.71;91537.31;5116414;27;20030;-78
2023/04/01 11:59:48;;;;;;;1.98;1.30;;;;;;;14.22;35.25;91527.00;5108576;27;20063;-78
2023/04/01 12:02:20;;;;;;;3.63;2.22;;;;;;;14.99;36.75;91532.22;5130777;27;20118;-78
2023/04/01 12:05:19;;;;;;;0.60;0.60;;;;;;;15.48;32.72;91531.19;5109438;27;20454;-79
2023/04/01 12:08:14;;;;;;;0.63;0.60;;;;;;;16.20;34.84;91532.91;5108432;27;20053;-78
2023/04/01 12:10:52;;;;;;;0.82;0.70;;;;;;;16.07;32.30;91528.84;5095876;27;20059;-79
2023/04/01 12:13:32;;;;;;;0.68;0.68;;;;;;;15.86;31.34;91521.19;5131257;27;20031;-78
2023/04/01 12:16:36;;;;;;;7.47;3.40;;;;;;;15.92;33.59;91525.88;5105249;27;20058;-78
2023/04/01 12:19:08;;;;;;;0.60;0.60;;;;;;;16.01;28.79;91523.81;5108572;27;20032;-78
2023/04/01 12:21:43;;;;;;;0.95;0.80;;;;;;;15.76;31.64;91519.81;5109228;27;20029;-79
2023/04/01 12:24:30;;;;;;;0.75;0.70;;;;;;;15.31;31.36;91521.75;5107803;27;20374;-77
2023/04/01 12:27:02;;;;;;;1.48;0.80;;;;;;;15.28;33.75;91521.63;5095043;28;20036;-78
2023/04/01 12:29:46;;;;;;;1.05;0.85;;;;;;;15.79;31.15;91524.44;5112216;28;20040;-79
2023/04/01 12:32:30;;;;;;;1.08;0.88;;;;;;;16.16;30.80;91532.06;5110956;27;20035;-79